UPSVAC Airport Information Service

Anchorage Ted Stevens International Airport (500-599)

ICAO: PANC Country: United States
Latitude: 61.1744 Longitude: -149.996
Latest Arrival : UPSJUMP (KCVG-PANC) Latest Departure : UPSJUMP (PANC-KSDF)


WX CaptureLIVE
Data provided by noaa.gov | Fetched at 14:23:45

METAR : PANC 141353Z 04005KT 10SM SCT048 BKN075 OVC090 02/M03 A2963

TAF : PANC 141124Z 1412/1518 36014G18KT P6SM SCT050 BKN070 TEMPO 1415/1418 -RASN BKN045 FM141800 36007KT P6SM SCT045 BKN080 WS020/10025KT FM150100 15015G25KT P6SM BKN050 FM150500 16025G35KT P6SM -RA BKN045 FM151200 15015G25KT P6SM SCT045 BKN070 FM151600 15007KT P6SM SCT050 BKN090


Runway Data for PANC
Data provided by openaviationdata.com

Runway ID Mag Var Hdg Length Elevation Surface ILS Freq ILS Id ILS Slope
07L 23 66° 10587 ft 152 ft Asphalt 109.9 ITGN 3
07R 23 66° 10886 ft 152 ft Asphalt 111.3 IANC 3
15 23 141° 11591 ft 152 ft Asphalt 111.75 IBSC 3
25L 23 246° 10886 ft 152 ft Asphalt -- -- --
25R 23 246° 10587 ft 152 ft Asphalt -- -- --
33 23 321° 11591 ft 152 ft Asphalt -- -- --

Anchorage Ted Stevens International Airport (500-599), United States
Use only for reference purposes



Not for navigational purposes.